Swainsboro, GA (30401)

6:19 AM EST on February 14, 2016 (GMT -0500)
Emanuel County | | Change Station
CLOSE
Current Station
Airport
Location: Swainsboro,
Elevation: 328 ft
Nearby Weather Stations

Elev 328 ft 32.61 °N, 82.37 °W | Updated 24 minutes ago

Clear
Clear
32 °F
Feels Like 25 °F
N
8
Wind Variable Wind from ENE

Today
High -- | Low -- °F
--% Chance of Precip.
Yesterday
High -- | Low -- °F
Precip. -- in
Pressure 30.40 in
Visibility 10.0 miles
Clouds Clear
Windchill 25 °F
Dew Point 18 °F
Humidity 55%
Rainfall 0.00 in
Snow Depth Not available.
7:13 AM 6:13 PM
Waxing Crescent, 40% visible
METAR KSBO 141055Z AUTO 06007KT 030V090 10SM CLR 00/M08 A3040 RMK AO2
Pressure 30.40 in
Visibility 10.0 miles
Clouds Clear
Windchill 25 °F
Dew Point 18 °F
Humidity 55%
Rainfall 0.00 in
Snow Depth Not available.
7:13 AM 6:13 PM
Waxing Crescent, 40% visible
METAR KSBO 141055Z AUTO 06007KT 030V090 10SM CLR 00/M08 A3040 RMK AO2

10-Day Weather Forecast

Almanac

Astronomy

Feb. 14, 2016 Rise Set
Actual Time
Civil Twilight
Nautical Twilight
Astronomical Twilight
Moon
Length of Visible Light
Length of Day
Tomorrow will be .
, % of the Moon is Illuminated

Today's Extremes

State Highs State Lows

Community

WunderPhotos

Upload Photos

1,892,765 photos uploaded!

WunderBlog® & News

Nearby

Air Quality

  Air Quality AQ Index Pollutant
Not available.

Snow Depth

Station Depth Elevation

Earthquake Activity

City Distance Mag. Time & Date
Minimum magnitude displayed is 2.5.

Coastal Water Temperatures

Place Temperature

Stations

Nearby Weather Stations

Station Location Temp. Windchill Dew Point Humidity Wind Precip. Elev Updated Type
                   

Watches & Warnings

There are currently no watches in effect.